Flight Track Log - Related Links

Times and Time Zones

All times are in EDT time to prevent confusion due to time zone crossing. See the N911PS flight status page for this flight to view local times or setup timezone preferences in your user account.

Time Position Orientation Groundspeed Altitude Reporting Facility
EDT Latitude Longitude Course Direction KTS MPH feet Rate Location/Type
Wed 04:57:20 PM 40.9867 -78.4511 189° South 89 102 3,500  Level Cleveland Center
Wed 04:58:22 PM 40.9606 -78.4567 189° South 94 108 3,900 339 Climbing Cleveland Center
Wed 04:59:24 PM 40.9306 -78.4708 200° South 108 124 4,200 192 Climbing Cleveland Center
Wed 05:00:27 PM 40.9017 -78.4619 167° South 121 139 4,300 95 Climbing Cleveland Center
Wed 05:02:00 PM 40.8797 -78.5000 180° South  Level FlightAware
Wed 05:09:00 PM 40.7243 -78.5940 203° Southwest  Level FlightAware
Wed 05:10:00 PM 40.7015 -78.6066 203° Southwest  Level FlightAware
Wed 05:11:00 PM 40.6787 -78.6194 204° Southwest  Level FlightAware
Wed 05:12:00 PM 40.6562 -78.6329 204° Southwest  Level FlightAware
Wed 05:13:00 PM 40.6337 -78.6463 204° Southwest  Level FlightAware
Wed 05:14:00 PM 40.6111 -78.6597 204° Southwest  Level FlightAware
Wed 05:15:00 PM 40.5886 -78.6732 204° Southwest  Level FlightAware
Wed 05:16:00 PM 40.5660 -78.6866 204° Southwest  Level FlightAware
Wed 05:17:00 PM 40.5435 -78.7000 204° Southwest  Level FlightAware
Wed 05:18:00 PM 40.5209 -78.7134 204° Southwest  Level FlightAware
Wed 05:19:00 PM 40.4984 -78.7267 204° Southwest  Level FlightAware
Wed 05:20:00 PM 40.4758 -78.7401 204° Southwest  Level FlightAware
Wed 05:21:00 PM 40.4533 -78.7535 204° Southwest  Level FlightAware
Wed 05:22:00 PM 40.4307 -78.7669 204° Southwest  Level FlightAware
Wed 05:23:00 PM 40.4082 -78.7802 204° Southwest  Level FlightAware
Wed 05:24:00 PM 40.3856 -78.7935 204° Southwest  Level FlightAware
Wed 05:25:00 PM 40.3630 -78.8069 204° Southwest  Level FlightAware
Wed 05:26:00 PM 40.3405 -78.8202 204° Southwest  Level FlightAware
Wed 05:27:00 PM 40.3179 -78.8335 204° Southwest  Level FlightAware
Wed 05:28:00 PM 40.2954 -78.8468 204° Southwest  Level FlightAware
Wed 05:29:00 PM 40.2728 -78.8601 204° Southwest  Level FlightAware
Wed 05:30:00 PM 40.2502 -78.8734 204° Southwest  Level FlightAware
Wed 05:31:00 PM 40.2280 -78.8874 210° Southwest  Level FlightAware
Wed 05:32:00 PM 40.2065 -78.9035 210° Southwest  Level FlightAware
Wed 05:33:00 PM 40.1850 -78.9196 210° Southwest  Level FlightAware
Wed 05:34:00 PM 40.1633 -78.9350 201° Southwest  Level FlightAware
Wed 05:35:00 PM 40.1402 -78.9466 201° Southwest  Level FlightAware
Wed 05:36:00 PM 40.1171 -78.9581 201° Southwest  Level FlightAware
Wed 05:37:00 PM 40.0940 -78.9697 201° Southwest  Level FlightAware
Wed 05:38:00 PM 40.0709 -78.9812 201° Southwest  Level FlightAware
Wed 05:39:00 PM 40.0478 -78.9928 201° Southwest  Level FlightAware
Wed 05:40:00 PM 40.0333 -79.0000 201° Southwest  Level FlightAware
Wed 05:41:00 PM 40.0389 -79.0150 201° Southwest  Level Estimated
Wed 05:42:00 PM 40.0389 -79.0150 201° Southwest  Level Estimated
Wed 05:43:00 PM 40.0389 -79.0150 201° Southwest  Level Estimated
Wed 05:44:00 PM 40.0389 -79.0150 201° Southwest  Level Estimated
Wed 05:45:00 PM 40.0389 -79.0150 201° Southwest  Level Estimated
Wed 05:46:00 PM 40.0389 -79.0150 201° Southwest  Level Estimated
Wed 05:47:00 PM 40.0389 -79.0150 201° Southwest  Level Estimated
Wed 05:48:00 PM 40.0389 -79.0150 201° Southwest  Level Estimated
Wed 05:49:00 PM 40.0389 -79.0150 201° Southwest  Level Estimated
Wed 05:50:00 PM 40.0389 -79.0150 201° Southwest  Level Estimated
Wed 05:51:00 PM 40.0389 -79.0150 201° Southwest  Level Estimated
Wed 05:52:00 PM 40.0389 -79.0150 201° Southwest  Level Estimated
Wed 05:53:00 PM 40.0389 -79.0150 201° Southwest  Level Estimated
Wed 05:54:00 PM 40.0389 -79.0150 201° Southwest  Level Estimated
Wed 05:55:00 PM 40.0389 -79.0150 201° Southwest  Level Estimated
Wed 05:56:00 PM 40.0389 -79.0150 201° Southwest  Level Estimated
Wed 05:57:00 PM 40.0389 -79.0150 201° Southwest  Level Estimated
Wed 05:58:00 PM 40.0389 -79.0150 201° Southwest  Level Estimated

Login

Don't have an account? Register now (free) for customized features, flight alerts, and more!